createdAt,value
2017-02-08T00:00:16.138Z,48.18
2017-02-08T00:01:25.121Z,48.35
2017-02-08T00:02:34.114Z,48.44
2017-02-08T00:03:43.091Z,48.25
2017-02-08T00:04:52.080Z,48.66
2017-02-08T00:06:01.065Z,48.44
2017-02-08T00:07:10.046Z,48.83
2017-02-08T00:08:19.031Z,48.54
2017-02-08T00:09:28.429Z,48.07
2017-02-08T00:10:37.416Z,48.35
2017-02-08T00:11:46.402Z,48.73
2017-02-08T00:12:55.391Z,48.64
2017-02-08T00:14:04.378Z,48.25
2017-02-08T00:15:13.352Z,48.93
2017-02-08T00:16:22.342Z,48.93
2017-02-08T00:17:31.369Z,48.73
2017-02-08T00:18:40.350Z,48.83
2017-02-08T00:19:49.337Z,48.83
2017-02-08T00:20:58.330Z,48.44
2017-02-08T00:22:07.303Z,48.44
2017-02-08T00:23:16.274Z,48.35
2017-02-08T00:24:25.258Z,48.54
2017-02-08T00:25:34.231Z,48.83
2017-02-08T00:26:43.206Z,48.52
2017-02-08T00:27:52.189Z,48.61
2017-02-08T00:29:01.168Z,48.44
2017-02-08T00:30:10.150Z,48.83
2017-02-08T00:31:19.139Z,48.33
2017-02-08T00:32:28.122Z,48.33
2017-02-08T00:33:37.097Z,48.71
2017-02-08T00:34:46.077Z,48.61
2017-02-08T00:35:55.054Z,48.61
2017-02-08T00:37:04.050Z,48.9
2017-02-08T00:38:13.032Z,48.42
2017-02-08T00:39:22.032Z,48.61
2017-02-08T00:40:31.051Z,48.9
2017-02-08T00:41:40.030Z,48.8
2017-02-08T00:42:49.010Z,48.61
2017-02-08T00:43:57.995Z,48.61
2017-02-08T00:45:06.980Z,48.71
2017-02-08T00:46:16.042Z,48.52
2017-02-08T00:47:25.037Z,49.09
2017-02-08T00:48:34.429Z,48.33
2017-02-08T00:49:43.406Z,48.04
2017-02-08T00:50:52.375Z,48.52
2017-02-08T00:52:01.362Z,48.33
2017-02-08T00:53:10.763Z,48.13
2017-02-08T00:54:19.763Z,48.42
2017-02-08T00:55:28.751Z,48.33
2017-02-08T00:56:38.150Z,48.13
2017-02-08T00:57:47.138Z,48.21
2017-02-08T00:58:56.111Z,48.13
2017-02-08T01:00:05.106Z,48.13
2017-02-08T01:01:14.091Z,48.13
2017-02-08T01:02:23.062Z,48.21
2017-02-08T01:03:32.040Z,48.04
2017-02-08T01:04:41.026Z,48.04
2017-02-08T01:05:50.017Z,48.23
2017-02-08T01:06:58.997Z,47.85
2017-02-08T01:08:07.985Z,48.21
2017-02-08T01:09:16.965Z,48.21
2017-02-08T01:10:25.942Z,48.11
2017-02-08T01:11:34.924Z,48.39
2017-02-08T01:12:43.901Z,48.23
2017-02-08T01:13:52.889Z,47.92
2017-02-08T01:15:02.337Z,48.21
2017-02-08T01:16:11.315Z,48.3
2017-02-08T01:17:20.296Z,48.3
2017-02-08T01:18:29.276Z,48.78
2017-02-08T01:19:38.254Z,48.68
2017-02-08T01:20:47.241Z,48.49
2017-02-08T01:21:56.234Z,48.02
2017-02-08T01:23:05.209Z,48.11
2017-02-08T01:24:15.108Z,48.02
2017-02-08T01:25:24.089Z,48.3
2017-02-08T01:26:33.067Z,48.11
2017-02-08T01:27:42.054Z,48.39
2017-02-08T01:28:51.028Z,48.39
2017-02-08T01:30:00.006Z,48.21
2017-02-08T01:31:08.988Z,48.11
2017-02-08T01:32:17.967Z,48.21
2017-02-08T01:33:26.938Z,47.82
2017-02-08T01:34:35.930Z,47.82
2017-02-08T01:35:45.332Z,47.82
2017-02-08T01:36:54.314Z,47.92
2017-02-08T01:38:03.284Z,47.73
2017-02-08T01:39:12.272Z,47.92
2017-02-08T01:40:21.246Z,47.82
2017-02-08T01:41:30.234Z,47.82
2017-02-08T01:42:39.223Z,48.21
2017-02-08T01:43:48.195Z,48.39
2017-02-08T01:44:57.177Z,47.82
2017-02-08T01:46:06.168Z,47.92
2017-02-08T01:47:15.151Z,47.73
2017-02-08T01:48:24.558Z,48.21
2017-02-08T01:49:33.541Z,48.02
2017-02-08T01:50:42.943Z,47.92
2017-02-08T01:51:51.915Z,47.92
2017-02-08T01:53:00.891Z,47.89
2017-02-08T01:54:09.870Z,47.92
2017-02-08T01:55:18.853Z,48.02
2017-02-08T01:56:27.838Z,47.82
2017-02-08T01:57:36.812Z,47.92
2017-02-08T01:58:45.792Z,48.11
2017-02-08T01:59:54.774Z,48.21
2017-02-08T02:01:03.834Z,48.21
2017-02-08T02:02:12.805Z,48.18
2017-02-08T02:03:21.792Z,48.37
2017-02-08T02:04:31.173Z,47.99
2017-02-08T02:05:40.143Z,47.8
2017-02-08T02:06:49.122Z,47.8
2017-02-08T02:07:58.109Z,47.99
2017-02-08T02:09:07.083Z,47.8
2017-02-08T02:10:16.069Z,47.8
2017-02-08T02:11:25.039Z,47.99
2017-02-08T02:12:34.424Z,47.61
2017-02-08T02:13:43.414Z,47.71
2017-02-08T02:14:52.393Z,47.8
2017-02-08T02:16:01.375Z,47.71
2017-02-08T02:17:10.356Z,47.89
2017-02-08T02:18:19.338Z,47.8
2017-02-08T02:19:28.309Z,47.71
2017-02-08T02:20:37.296Z,47.61
2017-02-08T02:21:46.276Z,48.18
2017-02-08T02:22:55.241Z,47.71
2017-02-08T02:24:04.228Z,47.89
2017-02-08T02:25:13.200Z,47.71
2017-02-08T02:26:22.186Z,47.71
2017-02-08T02:27:31.156Z,47.8
2017-02-08T02:28:40.139Z,48.28
2017-02-08T02:29:49.105Z,48.37
2017-02-08T02:30:58.498Z,47.99
2017-02-08T02:32:07.475Z,47.8
2017-02-08T02:33:16.471Z,48.08
2017-02-08T02:34:25.459Z,47.8
2017-02-08T02:35:34.444Z,47.99
2017-02-08T02:36:43.432Z,47.89
2017-02-08T02:37:52.823Z,48.08
2017-02-08T02:39:01.787Z,47.71
2017-02-08T02:40:10.773Z,48.18
2017-02-08T02:41:19.753Z,47.99
2017-02-08T02:42:29.136Z,48.37
2017-02-08T02:43:38.125Z,48.08
2017-02-08T02:44:47.124Z,47.99
2017-02-08T02:45:56.099Z,48.08
2017-02-08T02:47:05.125Z,47.8
2017-02-08T02:48:14.092Z,48.18
2017-02-08T02:49:23.071Z,48.18
2017-02-08T02:50:32.063Z,48.18
2017-02-08T02:51:41.038Z,48.18
2017-02-08T02:52:50.026Z,47.8
2017-02-08T02:53:59.005Z,47.8
2017-02-08T02:55:07.971Z,48.16
2017-02-08T02:56:16.947Z,48.35
2017-02-08T02:57:25.941Z,48.16
2017-02-08T02:58:34.947Z,47.87
2017-02-08T02:59:43.929Z,47.89
2017-02-08T03:00:52.911Z,47.78
2017-02-08T03:02:01.898Z,47.68
2017-02-08T03:03:10.875Z,47.87
2017-02-08T03:04:19.856Z,47.78
2017-02-08T03:05:29.239Z,47.8
2017-02-08T03:06:38.223Z,47.68
2017-02-08T03:07:47.629Z,47.8
2017-02-08T03:08:57.424Z,47.78
2017-02-08T03:10:06.433Z,47.78
2017-02-08T03:11:15.413Z,47.68
2017-02-08T03:12:24.386Z,47.97
2017-02-08T03:13:33.365Z,47.58
2017-02-08T03:14:42.350Z,47.78
2017-02-08T03:15:51.336Z,47.68
2017-02-08T03:17:00.309Z,47.68
2017-02-08T03:18:09.731Z,47.2
2017-02-08T03:19:18.725Z,47.68
2017-02-08T03:20:27.701Z,47.58
2017-02-08T03:21:36.670Z,47.58
2017-02-08T03:22:45.649Z,47.58
2017-02-08T03:23:54.622Z,47.58
2017-02-08T03:25:03.608Z,47.78
2017-02-08T03:26:12.597Z,47.39
2017-02-08T03:27:21.575Z,47.68
2017-02-08T03:28:30.545Z,47.78
2017-02-08T03:29:39.525Z,47.3
2017-02-08T03:30:48.497Z,47.02
2017-02-08T03:31:57.489Z,47.49
2017-02-08T03:33:06.474Z,47.58
2017-02-08T03:34:15.852Z,47.87
2017-02-08T03:35:24.837Z,47.11
2017-02-08T03:36:34.228Z,47.3
2017-02-08T03:37:43.203Z,47.78
2017-02-08T03:38:52.192Z,47.78
2017-02-08T03:40:01.178Z,47.39
2017-02-08T03:41:10.156Z,47.87
2017-02-08T03:42:19.540Z,47.68
2017-02-08T03:43:28.514Z,47.87
2017-02-08T03:44:37.492Z,47.49
2017-02-08T03:45:46.472Z,47.58
2017-02-08T03:46:55.463Z,47.3
2017-02-08T03:48:04.432Z,47.2
2017-02-08T03:49:13.399Z,47.87
2017-02-08T03:50:22.384Z,47.87
2017-02-08T03:51:31.364Z,47.78
2017-02-08T03:52:40.348Z,47.68
2017-02-08T03:53:49.320Z,47.3
2017-02-08T03:54:58.294Z,47.58
2017-02-08T03:56:07.263Z,47.08
2017-02-08T03:57:16.253Z,47.28
2017-02-08T03:58:25.241Z,47.18
2017-02-08T03:59:34.216Z,47.75
2017-02-08T04:00:43.213Z,47.66
2017-02-08T04:01:52.181Z,47.75
2017-02-08T04:03:01.161Z,47.75
2017-02-08T04:04:10.144Z,47.18
2017-02-08T04:05:19.130Z,47.18
2017-02-08T04:06:28.106Z,47.28
2017-02-08T04:07:37.082Z,47.75
2017-02-08T04:08:46.058Z,47.85
2017-02-08T04:09:55.042Z,47.85
2017-02-08T04:11:04.025Z,47.28
2017-02-08T04:12:13.002Z,47.37
2017-02-08T04:13:21.969Z,47.85
2017-02-08T04:14:30.957Z,47.75
2017-02-08T04:15:39.929Z,47.56
2017-02-08T04:16:48.911Z,47.75
2017-02-08T04:17:57.887Z,47.85
2017-02-08T04:19:06.869Z,47.66
2017-02-08T04:20:15.845Z,47.56
2017-02-08T04:21:25.250Z,47.37
2017-02-08T04:22:34.227Z,47.85
2017-02-08T04:23:43.204Z,47.66
2017-02-08T04:24:52.200Z,47.85
2017-02-08T04:26:01.183Z,47.85
2017-02-08T04:27:10.575Z,47.75
2017-02-08T04:28:19.553Z,47.85
2017-02-08T04:29:28.544Z,47.85
2017-02-08T04:30:37.508Z,47.47
2017-02-08T04:31:46.485Z,47.66
2017-02-08T04:32:55.884Z,47.75
2017-02-08T04:34:04.863Z,48.23
2017-02-08T04:35:13.851Z,47.75
2017-02-08T04:36:22.827Z,47.28
2017-02-08T04:37:32.222Z,47.66
2017-02-08T04:38:41.190Z,47.94
2017-02-08T04:39:50.166Z,47.18
2017-02-08T04:40:59.146Z,47.56
2017-02-08T04:42:08.137Z,47.75
2017-02-08T04:43:17.527Z,47.56
2017-02-08T04:44:26.504Z,47.85
2017-02-08T04:45:35.475Z,47.66
2017-02-08T04:46:44.459Z,47.56
2017-02-08T04:47:53.864Z,47.66
2017-02-08T04:49:02.838Z,47.56
2017-02-08T04:50:11.816Z,47.66
2017-02-08T04:51:20.791Z,47.85
2017-02-08T04:52:30.199Z,47.56
2017-02-08T04:53:39.177Z,47.75
2017-02-08T04:54:48.155Z,47.94
2017-02-08T04:55:57.544Z,47.28
2017-02-08T04:57:06.519Z,47.47
2017-02-08T04:58:15.502Z,47.94
2017-02-08T04:59:24.476Z,47.37
2017-02-08T05:00:33.466Z,47.75
2017-02-08T05:01:42.453Z,47.66
2017-02-08T05:02:51.852Z,47.47
2017-02-08T05:04:00.838Z,47.28
2017-02-08T05:05:09.815Z,46.99
2017-02-08T05:06:18.794Z,47.66
2017-02-08T05:07:27.770Z,47.47
2017-02-08T05:08:36.744Z,47.94
2017-02-08T05:09:45.734Z,47.37
2017-02-08T05:10:54.712Z,47.75
2017-02-08T05:12:03.692Z,47.85
2017-02-08T05:13:12.671Z,47.75
2017-02-08T05:14:21.656Z,47.56
2017-02-08T05:15:30.636Z,47.66
2017-02-08T05:16:39.618Z,47.85
2017-02-08T05:17:48.596Z,47.66
2017-02-08T05:18:57.567Z,47.75
2017-02-08T05:20:06.544Z,47.54
2017-02-08T05:21:15.519Z,47.66
2017-02-08T05:22:24.511Z,47.54
2017-02-08T05:23:33.497Z,47.56
2017-02-08T05:24:42.469Z,47.08
2017-02-08T05:25:51.437Z,47.16
2017-02-08T05:27:00.423Z,47.18
2017-02-08T05:28:09.412Z,47.28
2017-02-08T05:29:18.382Z,47.75
2017-02-08T05:30:27.366Z,47.56
2017-02-08T05:31:36.746Z,47.75
2017-02-08T05:32:45.716Z,47.66
2017-02-08T05:33:54.693Z,47.56
2017-02-08T05:35:03.668Z,47.63
2017-02-08T05:36:12.667Z,47.54
2017-02-08T05:37:21.664Z,47.73
2017-02-08T05:38:30.641Z,47.63
2017-02-08T05:39:39.634Z,47.82
2017-02-08T05:40:48.613Z,47.75
2017-02-08T05:41:57.597Z,47.47
2017-02-08T05:43:06.575Z,46.78
2017-02-08T05:44:15.559Z,47.06
2017-02-08T05:45:24.529Z,47.63
2017-02-08T05:46:33.494Z,47.92
2017-02-08T05:47:42.485Z,47.63
2017-02-08T05:48:51.469Z,47.82
2017-02-08T05:50:00.448Z,47.82
2017-02-08T05:51:09.842Z,47.82
2017-02-08T05:52:18.814Z,47.73
2017-02-08T05:53:27.800Z,47.82
2017-02-08T05:54:36.784Z,47.73
2017-02-08T05:55:46.196Z,47.73
2017-02-08T05:56:55.223Z,47.63
2017-02-08T05:58:04.217Z,47.73
2017-02-08T05:59:13.616Z,47.73
2017-02-08T06:00:22.604Z,47.73
2017-02-08T06:01:31.586Z,47.25
2017-02-08T06:02:40.563Z,47.34
2017-02-08T06:03:49.528Z,47.82
2017-02-08T06:04:58.547Z,47.54
2017-02-08T06:06:07.528Z,47.54
2017-02-08T06:07:16.515Z,47.73
2017-02-08T06:08:25.525Z,47.73
2017-02-08T06:09:34.505Z,51.16
2017-02-08T06:10:43.484Z,52.14
2017-02-08T06:11:52.466Z,51.28
2017-02-08T06:13:01.436Z,50.45
2017-02-08T06:14:10.824Z,50.45
2017-02-08T06:15:19.807Z,49.97
2017-02-08T06:16:28.786Z,49.97
2017-02-08T06:17:37.767Z,49.9
2017-02-08T06:18:46.752Z,50.09
2017-02-08T06:19:55.734Z,50.18
2017-02-08T06:21:05.114Z,54.1
2017-02-08T06:22:14.098Z,58.2
2017-02-08T06:23:23.085Z,59.95
2017-02-08T06:24:32.062Z,59.09
2017-02-08T06:25:41.511Z,55.84
2017-02-08T06:26:50.492Z,53.36
2017-02-08T06:27:59.469Z,52.28
2017-02-08T06:29:08.446Z,51.04
2017-02-08T06:30:17.423Z,50.76
2017-02-08T06:31:33.901Z,51.43
2017-02-08T06:32:42.874Z,54.6
2017-02-08T06:33:51.854Z,56.32
2017-02-08T06:35:00.865Z,56.99
2017-02-08T06:36:09.839Z,58.7
2017-02-08T06:37:18.816Z,59.12
2017-02-08T06:38:27.805Z,59.12
2017-02-08T06:39:36.784Z,59.41
2017-02-08T06:40:45.752Z,58.54
2017-02-08T06:41:54.742Z,59.12
2017-02-08T06:43:03.715Z,59.44
2017-02-08T06:44:12.698Z,60.01
2017-02-08T06:45:21.672Z,59.88
2017-02-08T06:46:30.655Z,60.3
2017-02-08T06:47:39.634Z,60.1
2017-02-08T06:48:48.613Z,60.87
2017-02-08T06:49:57.585Z,60.68
2017-02-08T06:51:06.559Z,61.72
2017-02-08T06:52:15.550Z,61.54
2017-02-08T06:53:24.527Z,61.54
2017-02-08T06:54:33.507Z,61.09
2017-02-08T06:55:42.488Z,61.63
2017-02-08T06:56:51.473Z,61.47
2017-02-08T06:58:00.441Z,61.57
2017-02-08T06:59:09.425Z,61.82
2017-02-08T07:00:18.412Z,62.14
2017-02-08T07:01:27.388Z,62.14
2017-02-08T07:02:36.367Z,61.95
2017-02-08T07:03:45.362Z,62.04
2017-02-08T07:04:54.335Z,61.57
2017-02-08T07:06:03.321Z,62.43
2017-02-08T07:07:12.308Z,62.04
2017-02-08T07:08:21.704Z,62.71
2017-02-08T07:09:30.677Z,62.43
2017-02-08T07:10:39.661Z,62.9
2017-02-08T07:11:49.041Z,63.39
2017-02-08T07:12:58.034Z,63.1
2017-02-08T07:14:07.012Z,62.81
2017-02-08T07:15:15.995Z,63.39
2017-02-08T07:16:25.852Z,64.34
2017-02-08T07:17:34.837Z,64.82
2017-02-08T07:18:44.681Z,65.11
2017-02-08T07:19:53.670Z,63.39
2017-02-08T07:21:03.073Z,63.39
2017-02-08T07:22:12.465Z,63.67
2017-02-08T07:23:21.453Z,64.34
2017-02-08T07:24:30.869Z,62.04
2017-02-08T07:25:40.252Z,62.04
2017-02-08T07:26:49.330Z,62.74
2017-02-08T07:27:58.720Z,62.17
2017-02-08T07:29:07.941Z,61.34
2017-02-08T07:30:16.914Z,60.86
2017-02-08T07:31:25.905Z,60.51
2017-02-08T07:32:35.325Z,60.41
2017-02-08T07:33:44.338Z,60.7
2017-02-08T07:34:53.322Z,60.25
2017-02-08T07:36:02.333Z,60.44
2017-02-08T07:37:11.324Z,60.35
2017-02-08T07:38:20.322Z,60.16
2017-02-08T07:39:29.334Z,59.61
2017-02-08T07:40:38.328Z,59.8
2017-02-08T07:41:47.731Z,59.23
2017-02-08T07:42:56.695Z,59.93
2017-02-08T07:44:05.682Z,60.31
2017-02-08T07:45:14.669Z,59.93
2017-02-08T07:46:23.652Z,59.26
2017-02-08T07:47:33.046Z,59.77
2017-02-08T07:48:42.026Z,59.96
2017-02-08T07:49:51.063Z,60.05
2017-02-08T07:51:00.386Z,59.58
2017-02-08T07:52:09.371Z,51.06
2017-02-08T07:53:18.348Z,47.06
2017-02-08T07:54:27.322Z,45.55
2017-02-08T07:55:36.309Z,44.74
2017-02-08T07:56:45.291Z,45.29
2017-02-08T07:57:54.277Z,45.75
2017-02-08T07:59:03.255Z,45.72
2017-02-08T08:00:12.251Z,45.43
2017-02-08T08:01:21.221Z,45.51
2017-02-08T08:02:30.614Z,45.51
2017-02-08T08:03:39.597Z,45.78
2017-02-08T08:04:48.983Z,46.44
2017-02-08T08:05:57.969Z,48.16
2017-02-08T08:07:06.951Z,48.39
2017-02-08T08:08:15.936Z,48.16
2017-02-08T08:09:24.910Z,48.02
2017-02-08T08:10:33.901Z,47.75
2017-02-08T08:11:42.873Z,47.97
2017-02-08T08:12:51.853Z,47.78
2017-02-08T08:14:00.843Z,47.89
2017-02-08T08:15:09.807Z,48.18
2017-02-08T08:16:18.785Z,48.49
2017-02-08T08:17:27.772Z,48.3
2017-02-08T08:18:36.756Z,48.61
2017-02-08T08:19:45.884Z,48.52
2017-02-08T08:20:54.863Z,48.8
2017-02-08T08:22:04.258Z,49
2017-02-08T08:23:13.225Z,49.02
2017-02-08T08:24:22.251Z,49.02
2017-02-08T08:25:31.222Z,49.31
2017-02-08T08:26:40.214Z,49.69
2017-02-08T08:27:49.189Z,49.72
2017-02-08T08:28:58.172Z,50.08
2017-02-08T08:30:07.159Z,50.08
2017-02-08T08:31:16.125Z,49.62
2017-02-08T08:32:25.117Z,50.1
2017-02-08T08:33:34.094Z,50.32
2017-02-08T08:34:43.083Z,50.51
2017-02-08T08:35:52.065Z,50.32
2017-02-08T08:37:01.056Z,50.23
2017-02-08T08:38:10.034Z,50.23
2017-02-08T08:39:19.169Z,50.63
2017-02-08T08:40:28.144Z,50.56
2017-02-08T08:41:37.133Z,50.76
2017-02-08T08:42:46.135Z,50.76
2017-02-08T08:43:55.113Z,51.14
2017-02-08T08:45:04.099Z,51.23
2017-02-08T08:46:13.082Z,51.81
2017-02-08T08:47:22.068Z,52.29
2017-02-08T08:48:31.083Z,52.48
2017-02-08T08:49:40.067Z,52.77
2017-02-08T08:50:49.057Z,52.97
2017-02-08T08:51:58.031Z,52.89
2017-02-08T08:53:07.025Z,53.19
2017-02-08T08:54:16.011Z,53.76
2017-02-08T08:55:24.983Z,53.38
2017-02-08T08:56:33.980Z,54.14
2017-02-08T08:57:42.959Z,54.43
2017-02-08T08:58:51.944Z,53.88
2017-02-08T09:00:00.914Z,53.98
2017-02-08T09:01:09.906Z,54.08
2017-02-08T09:02:18.884Z,54.08
2017-02-08T09:03:27.881Z,53.98
2017-02-08T09:04:36.903Z,54.17
2017-02-08T09:05:45.889Z,54.17
2017-02-08T09:06:54.863Z,54.2
2017-02-08T09:08:03.847Z,54.2
2017-02-08T09:09:12.839Z,54.2
2017-02-08T09:10:21.824Z,54.39
2017-02-08T09:11:30.816Z,54.49
2017-02-08T09:12:39.786Z,54.71
2017-02-08T09:13:48.773Z,54.42
2017-02-08T09:14:57.766Z,54.52
2017-02-08T09:16:06.756Z,55.19
2017-02-08T09:17:15.744Z,55.29
2017-02-08T09:18:25.145Z,54.9
2017-02-08T09:19:34.133Z,55.31
2017-02-08T09:20:43.527Z,55.41
2017-02-08T09:21:52.557Z,55.31
2017-02-08T09:23:01.556Z,55.31
2017-02-08T09:24:10.539Z,55.22
2017-02-08T09:25:19.530Z,55.24
2017-02-08T09:26:28.517Z,55.44
2017-02-08T09:27:37.500Z,55.44
2017-02-08T09:28:46.491Z,55.34
2017-02-08T09:29:55.487Z,55.34
2017-02-08T09:31:04.463Z,55.24
2017-02-08T09:32:13.503Z,55.18
2017-02-08T09:33:22.472Z,55.46
2017-02-08T09:34:31.873Z,56.24
2017-02-08T09:35:40.867Z,57.17
2017-02-08T09:36:49.849Z,58.72
2017-02-08T09:37:58.844Z,58.88
2017-02-08T09:39:07.909Z,58.88
2017-02-08T09:40:16.913Z,59.36
2017-02-08T09:41:25.887Z,58.97
2017-02-08T09:42:35.307Z,59.36
2017-02-08T09:43:44.289Z,59.17
2017-02-08T09:44:53.283Z,58.47
2017-02-08T09:46:02.283Z,59.23
2017-02-08T09:47:11.266Z,58.75
2017-02-08T09:48:20.256Z,59.04
2017-02-08T09:49:29.248Z,58.95
2017-02-08T09:50:38.246Z,58.56
2017-02-08T09:51:47.651Z,58.85
2017-02-08T09:52:56.651Z,58.47
2017-02-08T09:54:05.632Z,58.65
2017-02-08T09:55:14.615Z,58.92
2017-02-08T09:56:23.607Z,58.75
2017-02-08T09:57:32.596Z,58.65
2017-02-08T09:58:41.588Z,58.75
2017-02-08T09:59:50.565Z,59.04
2017-02-08T10:00:59.558Z,58.65
2017-02-08T10:02:08.536Z,59.04
2017-02-08T10:03:17.523Z,58.75
2017-02-08T10:04:26.510Z,58.85
2017-02-08T10:05:35.906Z,58.72
2017-02-08T10:06:44.895Z,58.65
2017-02-08T10:07:53.889Z,58.72
2017-02-08T10:09:02.870Z,58.53
2017-02-08T10:10:11.866Z,58.72
2017-02-08T10:11:20.863Z,58.82
2017-02-08T10:12:29.847Z,58.92
2017-02-08T10:13:38.823Z,58.72
2017-02-08T10:14:47.821Z,58.82
2017-02-08T10:15:56.800Z,58.92
2017-02-08T10:17:05.801Z,58.82
2017-02-08T10:18:14.781Z,58.92
2017-02-08T10:19:23.759Z,58.82
2017-02-08T10:20:32.743Z,59.01
2017-02-08T10:21:41.746Z,58.53
2017-02-08T10:22:50.720Z,47.36
2017-02-08T10:23:59.720Z,42
2017-02-08T10:25:08.703Z,41
2017-02-08T10:26:17.676Z,40.58
2017-02-08T10:27:26.723Z,41.42
2017-02-08T10:28:35.754Z,46.03
2017-02-08T10:29:44.753Z,47.32
2017-02-08T10:30:53.738Z,47.1
2017-02-08T10:32:02.730Z,46.88
2017-02-08T10:33:11.721Z,47.19
2017-02-08T10:34:20.713Z,47.41
2017-02-08T10:35:29.703Z,48.47
2017-02-08T10:36:38.686Z,48.86
2017-02-08T10:37:47.673Z,50.11
2017-02-08T10:38:56.765Z,50.57
2017-02-08T10:40:05.755Z,50.78
2017-02-08T10:41:14.747Z,50.59
2017-02-08T10:42:23.734Z,51
2017-02-08T10:43:32.722Z,51.48
2017-02-08T10:44:41.719Z,51.48
2017-02-08T10:45:50.696Z,51.87
2017-02-08T10:46:59.681Z,52.93
2017-02-08T10:48:08.664Z,52.64
2017-02-08T10:49:17.660Z,52.83
2017-02-08T10:50:26.887Z,53.15
2017-02-08T10:51:36.715Z,53.05
2017-02-08T10:52:45.694Z,53.15
2017-02-08T10:53:54.689Z,53.63
2017-02-08T10:55:03.708Z,53.17
2017-02-08T10:56:12.676Z,53.88
2017-02-08T10:57:21.659Z,55.2
2017-02-08T10:58:31.068Z,56.91
2017-02-08T10:59:40.056Z,57.56
2017-02-08T11:00:49.034Z,58.33
2017-02-08T11:01:58.019Z,58.4
2017-02-08T11:03:07.003Z,59.07
2017-02-08T11:04:16.001Z,58.4
2017-02-08T11:05:24.993Z,58.69
2017-02-08T11:06:33.968Z,58.59
2017-02-08T11:07:43.383Z,58.97
2017-02-08T11:08:52.369Z,58.85
2017-02-08T11:10:01.363Z,58.95
2017-02-08T11:11:10.343Z,58.95
2017-02-08T11:12:19.759Z,58.65
2017-02-08T11:13:28.752Z,59.23
2017-02-08T11:14:37.768Z,59.17
2017-02-08T11:15:46.772Z,59.72
2017-02-08T11:16:55.759Z,59.33
2017-02-08T11:18:04.745Z,59.62
2017-02-08T11:19:13.731Z,59.75
2017-02-08T11:20:22.715Z,59.62
2017-02-08T11:21:31.696Z,60
2017-02-08T11:22:40.690Z,59.72
2017-02-08T11:23:49.683Z,59.72
2017-02-08T11:24:58.663Z,59.91
2017-02-08T11:26:07.655Z,60
2017-02-08T11:27:16.649Z,59.72
2017-02-08T11:28:25.632Z,59.52
2017-02-08T11:29:34.623Z,60.1
2017-02-08T11:30:43.597Z,60
2017-02-08T11:31:52.993Z,60.3
2017-02-08T11:33:01.978Z,60.2
2017-02-08T11:34:10.959Z,60.1
2017-02-08T11:35:19.945Z,60.39
2017-02-08T11:36:29.594Z,60.39
2017-02-08T11:37:38.582Z,60.58
2017-02-08T11:38:47.569Z,60.3
2017-02-08T11:39:56.565Z,60
2017-02-08T11:41:05.555Z,60.3
2017-02-08T11:42:14.561Z,60.68
2017-02-08T11:43:23.592Z,60.68
2017-02-08T11:44:32.573Z,60.87
2017-02-08T11:45:41.559Z,59.84
2017-02-08T11:46:50.555Z,60.13
2017-02-08T11:48:00.619Z,60.13
2017-02-08T11:49:09.608Z,60.35
2017-02-08T11:50:18.606Z,60.64
2017-02-08T11:51:27.593Z,60.06
2017-02-08T11:52:36.574Z,59.58
2017-02-08T11:53:45.557Z,59.2
2017-02-08T11:54:54.603Z,59.61
2017-02-08T11:56:03.578Z,58.94
2017-02-08T11:57:12.558Z,59.16
2017-02-08T11:58:21.550Z,59.55
2017-02-08T11:59:30.535Z,59.61
2017-02-08T12:00:39.519Z,59.9
2017-02-08T12:01:48.503Z,60.1
2017-02-08T12:02:57.492Z,60.06
2017-02-08T12:04:06.885Z,60.06
2017-02-08T12:05:16.098Z,59.78
2017-02-08T12:06:25.077Z,59.97
2017-02-08T12:07:34.080Z,60.45
2017-02-08T12:08:43.102Z,60.35
2017-02-08T12:09:52.090Z,61.22
2017-02-08T12:11:01.104Z,61.22
2017-02-08T12:12:10.133Z,60.93
2017-02-08T12:13:19.129Z,60.83
2017-02-08T12:14:28.143Z,60.16
2017-02-08T12:15:37.145Z,59.97
2017-02-08T12:16:46.209Z,59.68
2017-02-08T12:17:55.193Z,60.06
2017-02-08T12:19:04.192Z,59.68
2017-02-08T12:20:13.171Z,60.06
2017-02-08T12:21:22.164Z,60.1
2017-02-08T12:22:31.155Z,60.16
2017-02-08T12:23:40.138Z,60.16
2017-02-08T12:24:49.127Z,60.06
2017-02-08T12:25:58.117Z,60.26
2017-02-08T12:27:07.518Z,60.35
2017-02-08T12:28:16.507Z,60.45
2017-02-08T12:29:25.481Z,60.45
2017-02-08T12:30:34.883Z,61.03
2017-02-08T12:31:43.878Z,60.64
2017-02-08T12:32:52.891Z,60.55
2017-02-08T12:34:01.870Z,60.64
2017-02-08T12:35:10.873Z,61.51
2017-02-08T12:36:19.860Z,61.71
2017-02-08T12:37:28.851Z,61.41
2017-02-08T12:38:37.843Z,61.13
2017-02-08T12:39:46.866Z,61.51
2017-02-08T12:40:55.840Z,61.61
2017-02-08T12:42:05.286Z,61.99
2017-02-08T12:43:14.266Z,61.71
2017-02-08T12:44:23.263Z,61.13
2017-02-08T12:45:32.683Z,61.03
2017-02-08T12:46:41.664Z,60.26
2017-02-08T12:47:50.645Z,60.83
2017-02-08T12:49:00.055Z,60.26
2017-02-08T12:50:09.035Z,60.35
2017-02-08T12:51:18.024Z,60.55
2017-02-08T12:52:27.023Z,60.35
2017-02-08T12:53:36.006Z,60.55
2017-02-08T12:54:45.401Z,60.93
2017-02-08T12:55:54.392Z,60.64
2017-02-08T12:57:03.383Z,60.93
2017-02-08T12:58:12.380Z,60.26
2017-02-08T12:59:21.797Z,60.83
2017-02-08T13:00:30.795Z,60.35
2017-02-08T13:01:39.781Z,60.45
2017-02-08T13:02:48.781Z,60.55
2017-02-08T13:03:57.777Z,60.64
2017-02-08T13:05:06.771Z,60.64
2017-02-08T13:06:15.766Z,60.83
2017-02-08T13:07:24.750Z,60.45
2017-02-08T13:08:33.750Z,60.52
2017-02-08T13:09:42.735Z,61
2017-02-08T13:10:51.721Z,60.61
2017-02-08T13:12:00.709Z,60.45
2017-02-08T13:13:09.703Z,60.61
2017-02-08T13:14:18.696Z,60.61
2017-02-08T13:15:27.727Z,60.8
2017-02-08T13:16:37.116Z,60.61
2017-02-08T13:17:46.515Z,60.61
2017-02-08T13:18:55.530Z,60.71
2017-02-08T13:20:04.521Z,60.23
2017-02-08T13:21:13.514Z,60.52
2017-02-08T13:22:22.501Z,60.42
2017-02-08T13:23:31.500Z,60.71
2017-02-08T13:24:40.491Z,60.42
2017-02-08T13:25:49.472Z,60.52
2017-02-08T13:26:58.459Z,61
2017-02-08T13:28:07.870Z,60.61
2017-02-08T13:29:16.844Z,60.32
2017-02-08T13:30:25.830Z,60.23
2017-02-08T13:31:34.824Z,60.61
2017-02-08T13:32:43.811Z,60.61
2017-02-08T13:33:52.799Z,60.61
2017-02-08T13:35:01.782Z,60.61
2017-02-08T13:36:11.187Z,60.61
2017-02-08T13:37:20.177Z,60.42
2017-02-08T13:38:29.163Z,60.42
2017-02-08T13:39:38.145Z,60.52
2017-02-08T13:40:47.148Z,60.61
2017-02-08T13:41:56.149Z,60.52
2017-02-08T13:43:05.138Z,60.42
2017-02-08T13:44:14.125Z,60.61
2017-02-08T13:45:23.106Z,60.8
2017-02-08T13:46:32.096Z,60.42
2017-02-08T13:47:41.086Z,60.8
2017-02-08T13:48:50.074Z,60.61
2017-02-08T13:49:59.061Z,60.61
2017-02-08T13:51:08.055Z,60.61
2017-02-08T13:52:17.039Z,60.8
2017-02-08T13:53:26.060Z,60.32
2017-02-08T13:54:35.045Z,60.23
2017-02-08T13:55:44.046Z,60.42
2017-02-08T13:56:53.439Z,60.23
2017-02-08T13:58:02.428Z,60.52
2017-02-08T13:59:11.838Z,60.52
2017-02-08T14:00:20.815Z,60.42
2017-02-08T14:01:29.805Z,60.42
2017-02-08T14:02:38.794Z,60.42
2017-02-08T14:03:47.784Z,60.52
2017-02-08T14:04:56.772Z,60.52
2017-02-08T14:06:05.767Z,60.61
2017-02-08T14:07:14.754Z,60.52
2017-02-08T14:08:23.744Z,60.52
2017-02-08T14:09:32.730Z,60.13
2017-02-08T14:10:42.131Z,60.32
2017-02-08T14:11:52.125Z,60.32
2017-02-08T14:13:01.381Z,60.32
2017-02-08T14:14:11.077Z,60.52
2017-02-08T14:15:20.060Z,60.23
2017-02-08T14:16:29.050Z,60.42
2017-02-08T14:17:38.036Z,60.32
2017-02-08T14:18:47.021Z,60.61
2017-02-08T14:19:56.010Z,60.32
2017-02-08T14:21:05.002Z,60.32
2017-02-08T14:22:13.981Z,60.61
2017-02-08T14:23:22.968Z,60.61
2017-02-08T14:24:31.959Z,60.32
2017-02-08T14:25:40.938Z,60.52
2017-02-08T14:26:49.925Z,60.42
2017-02-08T14:27:58.909Z,60.61
2017-02-08T14:29:07.886Z,60.03
2017-02-08T14:30:16.882Z,60.42
2017-02-08T14:31:25.874Z,60.42
2017-02-08T14:32:34.854Z,60.42
2017-02-08T14:41:43.826Z,60.52
2017-02-08T14:42:54.547Z,60.71
2017-02-08T14:44:03.533Z,60.71
2017-02-08T14:45:12.516Z,60.9
2017-02-08T14:46:21.517Z,60.8
2017-02-08T14:47:30.511Z,60.32
2017-02-08T14:48:39.528Z,60.8
2017-02-08T14:49:48.523Z,60.8
2017-02-08T14:50:57.503Z,60.8
2017-02-08T14:52:06.489Z,60.68
2017-02-08T14:53:15.478Z,60.8
2017-02-08T14:54:24.461Z,60.8
2017-02-08T14:55:33.453Z,60.8
2017-02-08T14:56:42.868Z,60.87
2017-02-08T14:57:51.847Z,60.8
2017-02-08T14:59:00.843Z,60.71
2017-02-08T15:00:09.838Z,60.68